createdAt,value
2018-07-28T00:00:18.252Z,0
2018-07-28T00:01:29.760Z,0
2018-07-28T00:02:34.377Z,0
2018-07-28T00:03:45.905Z,0
2018-07-28T00:04:50.513Z,0
2018-07-28T00:06:00.770Z,0
2018-07-28T00:07:06.640Z,0
2018-07-28T00:08:14.728Z,0
2018-07-28T00:09:22.789Z,0
2018-07-28T00:10:30.863Z,0
2018-07-28T00:11:38.908Z,0
2018-07-28T00:12:47.036Z,0
2018-07-28T00:13:55.301Z,0
2018-07-28T00:15:04.525Z,0
2018-07-28T00:16:11.170Z,0
2018-07-28T00:17:19.258Z,0
2018-07-28T00:18:27.312Z,0
2018-07-28T00:19:35.472Z,0
2018-07-28T00:20:43.445Z,0
2018-07-28T00:21:58.778Z,0
2018-07-28T00:22:59.774Z,0
2018-07-28T00:24:07.832Z,0
2018-07-28T00:25:15.951Z,0
2018-07-28T00:26:24.012Z,0
2018-07-28T00:27:32.052Z,0
2018-07-28T00:28:42.515Z,0
2018-07-28T00:29:48.187Z,0
2018-07-28T00:30:56.251Z,0
2018-07-28T00:32:04.337Z,0
2018-07-28T00:33:12.575Z,0
2018-07-28T00:34:20.668Z,0
2018-07-28T00:35:28.722Z,0
2018-07-28T00:36:36.784Z,0
2018-07-28T00:37:44.840Z,0
2018-07-28T00:38:52.973Z,0
2018-07-28T00:40:01.011Z,0
2018-07-28T00:41:09.052Z,0
2018-07-28T00:42:17.126Z,0
2018-07-28T00:43:25.174Z,0
2018-07-28T00:44:33.258Z,0
2018-07-28T00:45:41.374Z,0
2018-07-28T00:46:49.396Z,0
2018-07-28T00:47:58.162Z,0
2018-07-28T00:49:05.498Z,0
2018-07-28T00:50:15.027Z,0
2018-07-28T00:51:21.670Z,0
2018-07-28T00:52:29.758Z,0
2018-07-28T00:53:37.811Z,0
2018-07-28T00:54:46.134Z,0
2018-07-28T00:55:53.938Z,0
2018-07-28T00:57:03.473Z,0
2018-07-28T00:58:10.075Z,0
2018-07-28T00:59:18.160Z,0
2018-07-28T01:00:26.447Z,0
2018-07-28T01:01:34.285Z,0
2018-07-28T01:02:42.340Z,0
2018-07-28T01:03:50.432Z,0
2018-07-28T01:04:58.469Z,0
2018-07-28T01:06:06.567Z,0
2018-07-28T01:07:14.656Z,0
2018-07-28T01:08:22.688Z,0
2018-07-28T01:09:30.744Z,0
2018-07-28T01:10:38.805Z,0
2018-07-28T01:11:50.317Z,0
2018-07-28T01:12:54.947Z,0
2018-07-28T01:14:03.008Z,0
2018-07-28T01:15:11.074Z,0
2018-07-28T01:16:22.506Z,0
2018-07-28T01:17:27.220Z,0
2018-07-28T01:18:35.267Z,0
2018-07-28T01:19:43.334Z,0
2018-07-28T01:20:51.427Z,0
2018-07-28T01:21:59.478Z,0
2018-07-28T01:23:07.562Z,0
2018-07-28T01:24:15.584Z,0
2018-07-28T01:25:23.697Z,0
2018-07-28T01:26:32.018Z,0
2018-07-28T01:27:40.164Z,0
2018-07-28T01:28:47.974Z,0
2018-07-28T01:29:55.920Z,0
2018-07-28T01:31:04.374Z,0
2018-07-28T01:32:12.084Z,0
2018-07-28T01:33:20.154Z,0
2018-07-28T01:34:28.218Z,0
2018-07-28T01:35:36.318Z,0
2018-07-28T01:36:44.354Z,0
2018-07-28T01:37:52.444Z,0
2018-07-28T01:39:00.496Z,0
2018-07-28T01:40:08.586Z,0
2018-07-28T01:41:16.622Z,0
2018-07-28T01:42:24.707Z,0
2018-07-28T01:43:32.755Z,0
2018-07-28T01:44:40.837Z,0
2018-07-28T01:45:48.882Z,0
2018-07-28T01:46:56.959Z,0
2018-07-28T01:48:05.068Z,0
2018-07-28T01:49:13.104Z,0
2018-07-28T01:50:21.163Z,0
2018-07-28T01:51:29.223Z,0
2018-07-28T01:52:37.301Z,0
2018-07-28T01:53:45.350Z,0
2018-07-28T01:54:53.447Z,0
2018-07-28T01:56:01.544Z,0
2018-07-28T01:57:09.563Z,0
2018-07-28T01:58:17.639Z,0
2018-07-28T01:59:25.687Z,0
2018-07-28T02:00:33.759Z,0
2018-07-28T02:01:42.071Z,0
2018-07-28T02:02:50.218Z,0
2018-07-28T02:03:58.204Z,0
2018-07-28T02:05:06.458Z,0
2018-07-28T02:06:15.114Z,0
2018-07-28T02:07:22.793Z,0
2018-07-28T02:08:31.068Z,0
2018-07-28T02:09:39.130Z,0
2018-07-28T02:10:47.193Z,0
2018-07-28T02:11:55.229Z,0
2018-07-28T02:13:03.345Z,0
2018-07-28T02:14:11.394Z,0
2018-07-28T02:15:19.468Z,0
2018-07-28T02:16:27.538Z,0
2018-07-28T02:17:35.582Z,0
2018-07-28T02:18:43.655Z,0
2018-07-28T02:19:51.718Z,0
2018-07-28T02:20:59.795Z,0
2018-07-28T02:22:07.878Z,0
2018-07-28T02:23:15.909Z,0
2018-07-28T02:24:24.021Z,0
2018-07-28T02:25:32.052Z,0
2018-07-28T02:26:40.234Z,0
2018-07-28T02:27:48.203Z,0
2018-07-28T02:28:56.292Z,0
2018-07-28T02:30:04.341Z,0
2018-07-28T02:31:12.398Z,0
2018-07-28T02:32:23.838Z,0
2018-07-28T02:33:28.536Z,0
2018-07-28T02:34:36.644Z,0
2018-07-28T02:35:44.684Z,0
2018-07-28T02:36:52.756Z,0
2018-07-28T02:38:00.807Z,0
2018-07-28T02:39:08.914Z,0
2018-07-28T02:40:16.949Z,0
2018-07-28T02:41:25.212Z,0
2018-07-28T02:42:33.272Z,0
2018-07-28T02:43:41.376Z,0
2018-07-28T02:44:49.410Z,0
2018-07-28T02:45:57.486Z,0
2018-07-28T02:47:06.825Z,0
2018-07-28T02:48:13.615Z,0
2018-07-28T02:49:21.681Z,0
2018-07-28T02:50:29.749Z,0
2018-07-28T02:51:38.050Z,0
2018-07-28T02:52:46.104Z,0
2018-07-28T02:53:54.179Z,0
2018-07-28T02:55:02.492Z,0
2018-07-28T02:56:10.364Z,0
2018-07-28T02:57:19.455Z,0
2018-07-28T02:58:26.454Z,0
2018-07-28T02:59:34.494Z,0
2018-07-28T03:00:42.558Z,0
2018-07-28T03:01:50.641Z,0
2018-07-28T03:02:58.713Z,0
2018-07-28T03:04:06.764Z,0
2018-07-28T03:05:14.920Z,0
2018-07-28T03:06:22.907Z,0
2018-07-28T03:07:30.968Z,0
2018-07-28T03:08:40.532Z,0
2018-07-28T03:09:47.100Z,0
2018-07-28T03:10:55.176Z,0
2018-07-28T03:12:03.231Z,0
2018-07-28T03:13:12.972Z,0
2018-07-28T03:14:19.376Z,0
2018-07-28T03:15:27.448Z,0
2018-07-28T03:16:35.734Z,0
2018-07-28T03:17:43.578Z,0
2018-07-28T03:18:51.619Z,0
2018-07-28T03:19:59.729Z,0
2018-07-28T03:21:07.767Z,0
2018-07-28T03:22:17.229Z,0
2018-07-28T03:23:30.167Z,0
2018-07-28T03:24:45.966Z,0
2018-07-28T03:25:41.244Z,0
2018-07-28T03:26:49.305Z,0
2018-07-28T03:27:57.386Z,0
2018-07-28T03:29:05.604Z,0
2018-07-28T03:30:13.703Z,0
2018-07-28T03:31:21.757Z,0
2018-07-28T03:32:29.844Z,0
2018-07-28T03:33:38.012Z,0
2018-07-28T03:34:45.933Z,0
2018-07-28T03:35:54.041Z,0
2018-07-28T03:37:02.090Z,0
2018-07-28T03:38:10.179Z,0
2018-07-28T03:39:18.296Z,0
2018-07-28T03:40:26.357Z,0
2018-07-28T03:41:34.380Z,0
2018-07-28T03:42:42.432Z,0
2018-07-28T03:43:50.770Z,0
2018-07-28T03:44:58.573Z,0
2018-07-28T03:46:06.661Z,0
2018-07-28T03:47:14.703Z,5
2018-07-28T03:48:22.771Z,5
2018-07-28T03:49:30.839Z,5
2018-07-28T03:50:38.891Z,5
2018-07-28T03:51:46.985Z,5
2018-07-28T03:52:55.029Z,5
2018-07-28T03:54:03.313Z,10
2018-07-28T03:55:11.368Z,10
2018-07-28T03:56:19.454Z,10
2018-07-28T03:57:27.690Z,10
2018-07-28T03:58:35.559Z,10
2018-07-28T03:59:43.888Z,10
2018-07-28T04:00:51.728Z,15
2018-07-28T04:01:59.766Z,15
2018-07-28T04:03:07.870Z,15
2018-07-28T04:04:15.954Z,20
2018-07-28T04:05:24.000Z,20
2018-07-28T04:06:32.834Z,20
2018-07-28T04:07:40.132Z,25
2018-07-28T04:08:48.184Z,25
2018-07-28T04:09:56.281Z,25
2018-07-28T04:11:04.313Z,30
2018-07-28T04:12:12.395Z,30
2018-07-28T04:13:20.439Z,35
2018-07-28T04:14:28.547Z,40
2018-07-28T04:15:36.577Z,45
2018-07-28T04:16:44.647Z,50
2018-07-28T04:17:52.719Z,55
2018-07-28T04:19:01.055Z,60
2018-07-28T04:20:09.217Z,60
2018-07-28T04:21:16.921Z,60
2018-07-28T04:22:24.953Z,65
2018-07-28T04:23:33.148Z,70
2018-07-28T04:24:41.118Z,70
2018-07-28T04:25:49.186Z,75
2018-07-28T04:26:57.637Z,75
2018-07-28T04:28:05.494Z,75
2018-07-28T04:29:13.597Z,75
2018-07-28T04:30:21.665Z,70
2018-07-28T04:31:29.734Z,70
2018-07-28T04:32:37.803Z,70
2018-07-28T04:33:45.843Z,70
2018-07-28T04:34:53.933Z,70
2018-07-28T04:36:01.994Z,70
2018-07-28T04:37:10.279Z,75
2018-07-28T04:38:18.335Z,75
2018-07-28T04:39:26.609Z,75
2018-07-28T04:40:34.668Z,80
2018-07-28T04:41:42.740Z,85
2018-07-28T04:42:51.286Z,90
2018-07-28T04:43:59.435Z,95
2018-07-28T04:45:07.509Z,100
2018-07-28T04:46:15.224Z,105
2018-07-28T04:47:23.055Z,110
2018-07-28T04:48:31.130Z,115
2018-07-28T04:49:39.214Z,120
2018-07-28T04:50:48.905Z,130
2018-07-28T04:51:56.271Z,130
2018-07-28T04:53:03.605Z,135
2018-07-28T04:54:11.779Z,140
2018-07-28T04:55:19.955Z,140
2018-07-28T04:56:28.012Z,145
2018-07-28T04:57:36.138Z,150
2018-07-28T04:58:44.449Z,155
2018-07-28T04:59:52.454Z,165
2018-07-28T05:01:00.484Z,170
2018-07-28T05:02:09.101Z,175
2018-07-28T05:03:16.625Z,180
2018-07-28T05:04:25.755Z,175
2018-07-28T05:05:32.970Z,175
2018-07-28T05:06:40.853Z,170
2018-07-28T05:07:49.286Z,170
2018-07-28T05:08:57.280Z,170
2018-07-28T05:10:05.382Z,170
2018-07-28T05:11:13.307Z,170
2018-07-28T05:12:21.629Z,165
2018-07-28T05:13:29.291Z,165
2018-07-28T05:14:37.630Z,160
2018-07-28T05:15:45.601Z,165
2018-07-28T05:16:53.720Z,210
2018-07-28T05:18:01.843Z,265
2018-07-28T05:19:10.480Z,265
2018-07-28T05:20:17.641Z,245
2018-07-28T05:21:27.683Z,200
2018-07-28T05:22:33.789Z,175
2018-07-28T05:23:41.906Z,175
2018-07-28T05:24:54.328Z,180
2018-07-28T05:25:59.839Z,185
2018-07-28T05:27:06.052Z,190
2018-07-28T05:28:14.464Z,200
2018-07-28T05:29:22.590Z,210
2018-07-28T05:30:30.539Z,220
2018-07-28T05:31:38.343Z,235
2018-07-28T05:32:46.680Z,235
2018-07-28T05:33:54.769Z,245
2018-07-28T05:35:11.884Z,245
2018-07-28T05:36:10.628Z,250
2018-07-28T05:37:19.000Z,250
2018-07-28T05:38:26.755Z,250
2018-07-28T05:39:35.306Z,245
2018-07-28T05:40:43.202Z,240
2018-07-28T05:41:51.136Z,230
2018-07-28T05:42:59.169Z,225
2018-07-28T05:44:07.359Z,225
2018-07-28T05:45:15.391Z,220
2018-07-28T05:46:23.567Z,215
2018-07-28T05:47:31.312Z,215
2018-07-28T05:48:39.688Z,210
2018-07-28T05:49:51.072Z,215
2018-07-28T05:50:55.495Z,205
2018-07-28T05:52:05.563Z,215
2018-07-28T05:53:11.910Z,240
2018-07-28T05:54:21.016Z,280
2018-07-28T05:55:28.006Z,335
2018-07-28T05:56:36.200Z,355
2018-07-28T05:57:44.157Z,360
2018-07-28T05:58:52.637Z,355
2018-07-28T06:00:02.718Z,335
2018-07-28T06:01:08.700Z,330
2018-07-28T06:02:16.498Z,320
2018-07-28T06:03:24.520Z,310
2018-07-28T06:04:32.569Z,310
2018-07-28T06:05:41.269Z,325
2018-07-28T06:06:48.961Z,335
2018-07-28T06:07:57.107Z,360
2018-07-28T06:09:04.850Z,380
2018-07-28T06:10:13.562Z,375
2018-07-28T06:11:20.982Z,355
2018-07-28T06:12:29.061Z,330
2018-07-28T06:13:37.139Z,325
2018-07-28T06:14:45.431Z,320
2018-07-28T06:15:53.272Z,315
2018-07-28T06:17:05.721Z,310
2018-07-28T06:18:09.465Z,320
2018-07-28T06:19:17.703Z,325
2018-07-28T06:20:25.619Z,365
2018-07-28T06:21:33.935Z,385
2018-07-28T06:22:41.694Z,350
2018-07-28T06:23:49.810Z,300
2018-07-28T06:24:58.899Z,275
2018-07-28T06:26:05.942Z,265
2018-07-28T06:27:13.993Z,265
2018-07-28T06:28:22.109Z,270
2018-07-28T06:29:30.156Z,285
2018-07-28T06:30:38.543Z,285
2018-07-28T06:31:46.471Z,280
2018-07-28T06:32:54.371Z,275
2018-07-28T06:34:02.471Z,280
2018-07-28T06:35:10.546Z,290
2018-07-28T06:36:18.707Z,300
2018-07-28T06:37:26.756Z,305
2018-07-28T06:38:34.708Z,310
2018-07-28T06:39:43.280Z,310
2018-07-28T06:40:51.068Z,305
2018-07-28T06:41:59.149Z,300
2018-07-28T06:43:07.517Z,275
2018-07-28T06:44:15.482Z,240
2018-07-28T06:45:23.597Z,210
2018-07-28T06:46:39.778Z,195
2018-07-28T06:47:43.534Z,205
2018-07-28T07:10:28.865Z,55
2018-07-28T07:11:36.962Z,55
2018-07-28T07:12:45.023Z,55
2018-07-28T07:13:53.593Z,55
2018-07-28T07:15:01.399Z,55
2018-07-28T07:16:09.261Z,55
2018-07-28T07:17:17.668Z,60
2018-07-28T07:18:25.331Z,60
2018-07-28T07:19:33.693Z,65
2018-07-28T07:20:42.091Z,65
2018-07-28T07:21:50.021Z,65
2018-07-28T07:22:58.100Z,60
2018-07-28T07:24:05.934Z,55
2018-07-28T07:25:13.977Z,50
2018-07-28T07:26:22.050Z,45
2018-07-28T07:27:30.718Z,40
2018-07-28T07:28:38.172Z,40
2018-07-28T07:29:46.473Z,40
2018-07-28T07:30:54.320Z,40
2018-07-28T07:32:04.440Z,50
2018-07-28T07:33:10.446Z,60
2018-07-28T07:34:18.545Z,75
2018-07-28T07:35:26.630Z,85
2018-07-28T07:36:34.671Z,80
2018-07-28T07:37:42.754Z,75
2018-07-28T07:38:51.807Z,65
2018-07-28T07:39:59.935Z,65
2018-07-28T07:41:08.748Z,70
2018-07-28T07:42:15.267Z,70
2018-07-28T07:43:23.397Z,70
2018-07-28T07:44:31.519Z,70
2018-07-28T07:45:39.427Z,70
2018-07-28T07:46:47.503Z,70
2018-07-28T07:47:58.922Z,75
2018-07-28T07:49:03.658Z,80
2018-07-28T07:50:11.738Z,80
2018-07-28T07:51:19.798Z,75
2018-07-28T07:52:27.895Z,75
2018-07-28T07:53:35.897Z,75
2018-07-28T07:54:45.178Z,80
2018-07-28T07:55:52.052Z,85
2018-07-28T07:57:03.564Z,90
2018-07-28T07:58:08.414Z,100
2018-07-28T07:59:16.590Z,105
2018-07-28T08:00:24.547Z,110
2018-07-28T08:01:32.678Z,110
2018-07-28T08:02:40.754Z,110
2018-07-28T08:03:48.779Z,105
2018-07-28T08:04:56.921Z,105
2018-07-28T08:06:04.929Z,100
2018-07-28T08:07:13.318Z,100
2018-07-28T08:08:21.025Z,100
2018-07-28T08:09:29.773Z,100
2018-07-28T08:10:37.461Z,100
2018-07-28T08:11:45.404Z,100
2018-07-28T08:12:54.223Z,105
2018-07-28T08:14:01.841Z,110
2018-07-28T08:15:11.788Z,115
2018-07-28T08:16:17.777Z,115
2018-07-28T08:17:29.204Z,125
2018-07-28T08:18:33.871Z,135
2018-07-28T08:19:45.303Z,145
2018-07-28T08:20:49.999Z,160
2018-07-28T08:21:58.082Z,175
2018-07-28T08:23:06.119Z,190
2018-07-28T08:24:14.227Z,200
2018-07-28T08:25:22.259Z,215
2018-07-28T08:26:30.345Z,225
2018-07-28T08:27:38.412Z,235
2018-07-28T08:28:46.500Z,245
2018-07-28T08:29:54.548Z,250
2018-07-28T08:31:02.633Z,255
2018-07-28T08:32:11.674Z,255
2018-07-28T08:33:19.775Z,250
2018-07-28T08:34:27.813Z,240
2018-07-28T08:35:35.888Z,230
2018-07-28T08:36:44.219Z,225
2018-07-28T08:37:52.120Z,220
2018-07-28T08:39:00.096Z,215
2018-07-28T08:40:10.284Z,215
2018-07-28T08:41:16.248Z,220
2018-07-28T08:42:24.348Z,225
2018-07-28T08:43:32.387Z,235
2018-07-28T08:44:43.818Z,250
2018-07-28T08:45:48.521Z,265
2018-07-28T08:46:56.625Z,275
2018-07-28T08:48:04.645Z,285
2018-07-28T08:49:13.229Z,295
2018-07-28T08:50:21.058Z,300
2018-07-28T08:51:28.886Z,300
2018-07-28T08:52:38.020Z,300
2018-07-28T08:53:45.065Z,295
2018-07-28T08:54:53.254Z,285
2018-07-28T08:56:01.270Z,275
2018-07-28T08:57:09.228Z,270
2018-07-28T08:58:17.290Z,255
2018-07-28T08:59:25.336Z,245
2018-07-28T09:00:33.436Z,230
2018-07-28T09:01:41.509Z,225
2018-07-28T09:02:49.579Z,220
2018-07-28T09:03:57.661Z,230
2018-07-28T09:05:06.639Z,245
2018-07-28T09:06:13.795Z,255
2018-07-28T09:07:21.881Z,260
2018-07-28T09:08:29.927Z,270
2018-07-28T09:09:38.027Z,280
2018-07-28T09:10:46.287Z,290
2018-07-28T09:11:54.360Z,300
2018-07-28T09:13:02.412Z,315
2018-07-28T09:14:13.999Z,325
2018-07-28T09:15:18.546Z,340
2018-07-28T09:16:26.683Z,355
2018-07-28T09:17:34.692Z,380
2018-07-28T09:18:42.840Z,405
2018-07-28T09:19:51.591Z,440
2018-07-28T09:20:58.914Z,475
2018-07-28T09:22:07.172Z,505
2018-07-28T09:23:16.868Z,535
2018-07-28T09:24:23.974Z,555
2018-07-28T09:25:31.404Z,590
2018-07-28T09:26:39.457Z,665
2018-07-28T09:27:47.536Z,765
2018-07-28T09:28:55.570Z,840
2018-07-28T09:30:03.661Z,965
2018-07-28T09:31:11.736Z,910
2018-07-28T09:32:19.829Z,830
2018-07-28T09:33:27.923Z,920
2018-07-28T09:34:35.927Z,805
2018-07-28T09:35:44.060Z,750
2018-07-28T09:36:52.157Z,720
2018-07-28T09:38:00.177Z,725
2018-07-28T09:39:08.243Z,735
2018-07-28T09:40:16.321Z,745
2018-07-28T09:41:24.390Z,760
2018-07-28T09:42:32.677Z,780
2018-07-28T09:43:40.737Z,775
2018-07-28T09:44:48.813Z,780
2018-07-28T09:45:56.888Z,770
2018-07-28T09:47:05.029Z,705
2018-07-28T09:48:13.027Z,645
2018-07-28T09:49:21.111Z,620
2018-07-28T09:50:29.195Z,625
2018-07-28T09:51:37.451Z,610
2018-07-28T09:52:45.498Z,545
2018-07-28T09:53:53.620Z,540
2018-07-28T09:55:01.822Z,570
2018-07-28T09:56:09.828Z,590
2018-07-28T09:57:17.822Z,610
2018-07-28T09:58:26.129Z,670
2018-07-28T09:59:34.224Z,660
2018-07-28T10:00:42.257Z,670
2018-07-28T10:01:50.546Z,735
2018-07-28T10:02:58.648Z,775
2018-07-28T10:04:06.675Z,735
2018-07-28T10:05:15.005Z,700
2018-07-28T10:06:23.709Z,675
2018-07-28T10:07:31.259Z,645
2018-07-28T10:08:41.517Z,580
2018-07-28T10:09:47.034Z,545
2018-07-28T10:10:55.110Z,695
2018-07-28T10:12:03.174Z,725
2018-07-28T10:13:11.287Z,560
2018-07-28T10:14:19.324Z,495
2018-07-28T10:15:27.430Z,455
2018-07-28T10:16:35.452Z,445
2018-07-28T10:17:43.583Z,470
2018-07-28T10:18:51.628Z,505
2018-07-28T10:19:59.742Z,500
2018-07-28T10:21:08.026Z,505
2018-07-28T10:22:16.077Z,525
2018-07-28T10:23:24.117Z,530
2018-07-28T10:24:32.235Z,525
2018-07-28T10:25:40.301Z,525
2018-07-28T10:26:48.358Z,575
2018-07-28T10:27:56.410Z,640
2018-07-28T10:29:04.499Z,615
2018-07-28T10:30:12.881Z,585
2018-07-28T10:31:20.637Z,615
2018-07-28T10:32:28.704Z,585
2018-07-28T10:33:36.869Z,560
2018-07-28T10:34:45.120Z,495
2018-07-28T10:35:52.953Z,450
2018-07-28T10:37:01.763Z,475
2018-07-28T10:38:09.087Z,500
2018-07-28T10:39:17.165Z,490
2018-07-28T10:40:25.217Z,480
2018-07-28T10:41:36.417Z,470
2018-07-28T10:42:41.727Z,545
2018-07-28T10:43:49.438Z,580
2018-07-28T10:44:57.531Z,585
2018-07-28T10:46:07.300Z,595
2018-07-28T10:47:13.654Z,555
2018-07-28T10:48:21.743Z,530
2018-07-28T10:49:29.819Z,510
2018-07-28T10:50:37.900Z,485
2018-07-28T10:51:45.949Z,440
2018-07-28T10:52:54.044Z,430
2018-07-28T10:54:02.099Z,445
2018-07-28T10:55:13.721Z,440
2018-07-28T10:56:18.260Z,415
2018-07-28T10:57:27.010Z,380
2018-07-28T10:58:34.393Z,405
2018-07-28T10:59:42.463Z,510
2018-07-28T11:00:50.550Z,580
2018-07-28T11:01:58.609Z,630
2018-07-28T11:03:06.729Z,650
2018-07-28T11:04:14.813Z,655
2018-07-28T11:05:23.038Z,620
2018-07-28T11:06:32.584Z,630
2018-07-28T11:07:39.197Z,625
2018-07-28T11:08:47.873Z,600
2018-07-28T11:09:55.306Z,580
2018-07-28T11:11:06.793Z,550
2018-07-28T11:12:11.490Z,520
2018-07-28T11:13:22.684Z,495
2018-07-28T11:14:27.639Z,480
2018-07-28T11:15:35.695Z,470
2018-07-28T11:16:43.779Z,490
2018-07-28T11:17:51.874Z,535
2018-07-28T11:19:00.204Z,600
2018-07-28T11:20:08.052Z,645
2018-07-28T11:21:16.090Z,650
2018-07-28T11:22:24.167Z,625
2018-07-28T11:23:32.219Z,595
2018-07-28T11:24:40.311Z,585
2018-07-28T11:25:48.367Z,605
2018-07-28T11:26:56.459Z,630
2018-07-28T11:28:04.507Z,660
2018-07-28T11:29:12.882Z,690
2018-07-28T11:30:20.668Z,700
2018-07-28T11:31:29.063Z,690
2018-07-28T11:32:36.801Z,670
2018-07-28T11:33:44.873Z,665
2018-07-28T11:34:53.005Z,685
2018-07-28T11:36:01.097Z,700
2018-07-28T11:37:09.209Z,685
2018-07-28T11:38:17.167Z,705
2018-07-28T11:39:25.494Z,730
2018-07-28T11:40:33.327Z,735
2018-07-28T11:41:41.409Z,715
2018-07-28T11:42:49.585Z,710
2018-07-28T11:43:59.434Z,720
2018-07-28T11:45:05.588Z,725
2018-07-28T11:46:13.700Z,715
2018-07-28T11:47:23.197Z,685
2018-07-28T11:48:30.040Z,650
2018-07-28T11:49:38.124Z,610
2018-07-28T11:50:46.164Z,585
2018-07-28T11:51:54.355Z,605
2018-07-28T11:53:02.335Z,615
2018-07-28T11:54:10.738Z,685
2018-07-28T11:55:18.475Z,750
2018-07-28T11:56:26.576Z,760
2018-07-28T11:57:34.630Z,755
2018-07-28T11:58:42.704Z,725
2018-07-28T11:59:50.772Z,665
2018-07-28T12:00:58.848Z,605
2018-07-28T12:02:06.983Z,595
2018-07-28T12:03:15.258Z,610
2018-07-28T12:04:23.427Z,625
2018-07-28T12:05:31.247Z,645
2018-07-28T12:06:39.223Z,665
2018-07-28T12:07:47.295Z,700
2018-07-28T12:08:58.659Z,730
2018-07-28T12:10:03.439Z,750
2018-07-28T12:11:11.586Z,780
2018-07-28T12:12:19.599Z,800
2018-07-28T12:13:27.751Z,790
2018-07-28T12:14:35.724Z,775
2018-07-28T12:15:43.843Z,760
2018-07-28T12:16:52.171Z,735
2018-07-28T12:17:59.990Z,715
2018-07-28T12:19:08.047Z,715
2018-07-28T12:20:16.200Z,720
2018-07-28T12:21:24.187Z,720
2018-07-28T12:22:32.274Z,730
2018-07-28T12:23:40.345Z,740
2018-07-28T12:24:48.422Z,740
2018-07-28T12:25:56.505Z,745
2018-07-28T12:27:04.572Z,735
2018-07-28T12:28:12.647Z,695
2018-07-28T12:29:20.721Z,635
2018-07-28T12:30:32.188Z,580
2018-07-28T12:31:36.878Z,545
2018-07-28T12:32:48.569Z,515
2018-07-28T12:33:53.031Z,485
2018-07-28T12:35:04.596Z,455
2018-07-28T12:36:09.171Z,435
2018-07-28T12:37:17.317Z,430
2018-07-28T12:38:25.306Z,430
2018-07-28T12:39:33.425Z,440
2018-07-28T12:40:41.508Z,435
2018-07-28T12:41:49.538Z,440
2018-07-28T12:42:57.617Z,450
2018-07-28T12:44:05.685Z,465
2018-07-28T12:45:13.766Z,480
2018-07-28T12:46:21.862Z,500
2018-07-28T12:47:29.964Z,520
2018-07-28T12:48:37.998Z,540
2018-07-28T12:49:46.055Z,585
2018-07-28T12:50:54.148Z,630
2018-07-28T12:52:02.278Z,660
2018-07-28T12:53:10.287Z,650
2018-07-28T12:54:18.376Z,630
2018-07-28T12:55:26.528Z,610
2018-07-28T12:56:34.546Z,600
2018-07-28T12:57:42.689Z,600
2018-07-28T12:58:50.690Z,620
2018-07-28T12:59:58.737Z,645
2018-07-28T13:01:07.196Z,670
2018-07-28T13:02:14.877Z,685
2018-07-28T13:03:22.986Z,690
2018-07-28T13:04:31.050Z,675
2018-07-28T13:05:39.142Z,650
2018-07-28T13:06:47.191Z,625
2018-07-28T13:07:55.251Z,600
2018-07-28T13:09:03.328Z,590
2018-07-28T13:10:11.442Z,580
2018-07-28T13:11:19.575Z,575
2018-07-28T13:12:27.596Z,575
2018-07-28T13:13:35.663Z,580
2018-07-28T13:14:43.723Z,570
2018-07-28T13:15:51.773Z,570
2018-07-28T13:16:59.871Z,570
2018-07-28T13:18:07.935Z,580
2018-07-28T13:19:15.994Z,600
2018-07-28T13:20:24.101Z,630
2018-07-28T13:21:32.157Z,635
2018-07-28T13:22:40.245Z,630
2018-07-28T13:23:48.338Z,610
2018-07-28T13:24:56.386Z,590
2018-07-28T13:26:04.459Z,580
2018-07-28T13:27:12.547Z,575
2018-07-28T13:28:20.606Z,570
2018-07-28T13:29:28.689Z,565
2018-07-28T13:30:36.742Z,560
2018-07-28T13:31:44.827Z,555
2018-07-28T13:32:52.903Z,540
2018-07-28T13:34:00.990Z,530
2018-07-28T13:35:09.060Z,515
2018-07-28T13:36:17.116Z,495
2018-07-28T13:37:25.188Z,485
2018-07-28T13:38:36.638Z,490
2018-07-28T13:39:41.548Z,505
2018-07-28T13:40:54.902Z,525
2018-07-28T13:41:57.700Z,525
2018-07-28T13:43:10.328Z,535
2018-07-28T13:44:13.893Z,540
2018-07-28T13:45:21.942Z,525
2018-07-28T13:46:30.194Z,510
2018-07-28T13:47:38.300Z,500
2018-07-28T13:48:46.346Z,495
2018-07-28T13:49:54.425Z,500
2018-07-28T13:51:02.598Z,510
2018-07-28T13:52:10.563Z,515
2018-07-28T13:53:18.687Z,520
2018-07-28T13:54:26.732Z,510
2018-07-28T13:55:34.804Z,505
2018-07-28T13:56:42.855Z,505
2018-07-28T13:57:52.333Z,515
2018-07-28T13:58:59.024Z,515
2018-07-28T14:00:08.517Z,510
2018-07-28T14:01:15.138Z,500
2018-07-28T14:02:23.262Z,485
2018-07-28T14:03:31.311Z,475
2018-07-28T14:04:39.719Z,470
2018-07-28T14:05:47.455Z,460
2018-07-28T14:06:55.523Z,450
2018-07-28T14:08:03.603Z,435
2018-07-28T14:09:11.704Z,430
2018-07-28T14:10:19.752Z,425
2018-07-28T14:11:27.916Z,420
2018-07-28T14:12:35.863Z,420
2018-07-28T14:13:43.973Z,425
2018-07-28T14:14:52.103Z,430
2018-07-28T14:16:00.126Z,435
2018-07-28T14:17:08.185Z,440
2018-07-28T14:18:16.304Z,435
2018-07-28T14:19:24.342Z,425
2018-07-28T14:20:32.409Z,405
2018-07-28T14:21:40.867Z,395
2018-07-28T14:22:48.605Z,380
2018-07-28T14:23:56.661Z,370
2018-07-28T14:25:04.711Z,370
2018-07-28T14:26:12.795Z,370
2018-07-28T14:27:20.885Z,375
2018-07-28T14:28:29.039Z,380
2018-07-28T14:29:37.000Z,375
2018-07-28T14:30:45.046Z,370
2018-07-28T14:31:53.146Z,360
2018-07-28T14:33:01.233Z,355
2018-07-28T14:34:09.333Z,350
2018-07-28T14:35:17.358Z,350
2018-07-28T14:36:25.710Z,355
2018-07-28T14:37:33.726Z,350
2018-07-28T14:38:43.233Z,355
2018-07-28T14:39:49.861Z,350
2018-07-28T14:40:58.400Z,345
2018-07-28T14:42:06.461Z,345
2018-07-28T14:43:14.268Z,350
2018-07-28T14:44:22.452Z,350
2018-07-28T14:45:30.434Z,355
2018-07-28T14:46:38.709Z,365
2018-07-28T14:47:46.843Z,375
2018-07-28T14:48:54.937Z,385
2018-07-28T14:50:04.446Z,405
2018-07-28T14:51:11.250Z,425
2018-07-28T14:52:19.085Z,445
2018-07-28T14:53:27.147Z,465
2018-07-28T14:54:35.223Z,485
2018-07-28T14:55:43.300Z,510
2018-07-28T14:56:51.379Z,530
2018-07-28T14:57:59.526Z,535
2018-07-28T14:59:07.544Z,550
2018-07-28T15:00:15.560Z,540
2018-07-28T15:01:23.708Z,520
2018-07-28T15:02:31.739Z,515
2018-07-28T15:03:39.919Z,510
2018-07-28T15:04:47.872Z,470
2018-07-28T15:05:55.915Z,420
2018-07-28T15:07:04.110Z,410
2018-07-28T15:08:12.159Z,410
2018-07-28T15:09:20.160Z,400
2018-07-28T15:10:28.332Z,405
2018-07-28T15:11:36.312Z,415
2018-07-28T15:12:44.500Z,400
2018-07-28T15:13:52.517Z,395
2018-07-28T15:15:00.537Z,385
2018-07-28T15:16:08.607Z,400
2018-07-28T15:17:16.683Z,420
2018-07-28T15:18:28.162Z,435
2018-07-28T15:19:32.827Z,440
2018-07-28T15:20:40.922Z,430
2018-07-28T15:21:48.976Z,415
2018-07-28T15:22:57.063Z,390
2018-07-28T15:24:05.372Z,360
2018-07-28T15:25:13.213Z,330
2018-07-28T15:26:21.280Z,305
2018-07-28T15:27:29.372Z,280
2018-07-28T15:28:37.426Z,265
2018-07-28T15:29:45.513Z,255
2018-07-28T15:30:53.571Z,245
2018-07-28T15:32:01.744Z,250
2018-07-28T15:33:09.712Z,245
2018-07-28T15:34:17.998Z,245
2018-07-28T15:35:26.047Z,235
2018-07-28T15:36:34.140Z,210
2018-07-28T15:37:42.205Z,200
2018-07-28T15:38:50.264Z,180
2018-07-28T15:39:58.356Z,160
2018-07-28T15:41:06.453Z,155
2018-07-28T15:42:14.505Z,150
2018-07-28T15:43:22.591Z,145
2018-07-28T15:44:30.638Z,145
2018-07-28T15:45:39.006Z,140
2018-07-28T15:46:46.778Z,135
2018-07-28T15:47:54.997Z,120
2018-07-28T15:49:02.977Z,110
2018-07-28T15:50:11.029Z,105
2018-07-28T15:51:19.087Z,100
2018-07-28T15:52:27.169Z,110
2018-07-28T15:53:35.208Z,120
2018-07-28T15:54:43.303Z,135
2018-07-28T15:55:51.359Z,140
2018-07-28T15:56:59.439Z,155
2018-07-28T15:58:07.515Z,175
2018-07-28T15:59:15.558Z,185
2018-07-28T16:00:23.653Z,180
2018-07-28T16:01:31.728Z,190
2018-07-28T16:02:39.848Z,190
2018-07-28T16:03:47.874Z,195
2018-07-28T16:04:55.932Z,195
2018-07-28T16:06:04.068Z,195
2018-07-28T16:07:12.112Z,200
2018-07-28T16:08:20.257Z,190
2018-07-28T16:09:28.251Z,195
2018-07-28T16:10:36.295Z,200
2018-07-28T16:11:44.772Z,195
2018-07-28T16:12:52.447Z,200
2018-07-28T16:14:00.531Z,205
2018-07-28T16:15:08.591Z,210
2018-07-28T16:16:16.672Z,215
2018-07-28T16:17:24.732Z,220
2018-07-28T16:18:32.799Z,220